Aviation Digital Data Service (ADDS)

Output produced by METARs form (0122 UTC 23 April 2021)
found at http://aviationweather.gov/metar/data/
 
METAR text: KCAG 230053Z AUTO 26009KT 10SM BKN100 12/M12 A2977 RMK AO2 SLP063 T01171117
Conditions at: KCAG (CRAIG , CO, US) observed 0053 UTC 23 April 2021
Temperature: 11.7°C (53°F)
Dewpoint: -11.7°C (11°F) [RH = 18%]
Pressure (altimeter): 29.77 inches Hg (1008.2 mb)
[Sea-level pressure: 1006.3 mb]
Winds: from the W (260 degrees) at 10 MPH (9 knots; 4.6 m/s)
Visibility: 10 or more miles (16+ km)
Ceiling: 10000 feet AGL
Clouds: broken clouds at 10000 feet AGL
Weather: automated observation with no human augmentation;
there may or may not be significant weather present at this time